Time;durP1;ratioP1;P1;durP2;ratioP2;P2;SDS_P1;SDS_P2;PMS_P1;PMS_P2;Temp;Humidity;BMP_temperature;BMP_pressure;BME280_temperature;BME280_humidity;BME280_pressure;Samples;Min_cycle;Max_cycle;Signal;HPM_P1;HPM_P2
2022/04/25 00:03:11;;;;;;;10.27;8.85;;;;;;;;;;8162774;28;20708;-70
2022/04/25 00:07:11;;;;;;;9.02;8.13;;;;;;;;;;8164096;28;20027;-71
2022/04/25 00:11:11;;;;;;;9.73;8.63;;;;;;;;;;8166065;28;20031;-70
2022/04/25 00:15:12;;;;;;;9.95;8.85;;;;;;;;;;8159761;28;20059;-71
2022/04/25 00:19:12;;;;;;;9.20;8.27;;;;;;;;;;8164341;28;20037;-71
2022/04/25 00:23:12;;;;;;;9.52;7.80;;;;;;;;;;8163834;28;20039;-71
2022/04/25 00:27:13;;;;;;;9.95;8.50;;;;;;;;;;8172140;28;20030;-71
2022/04/25 00:31:13;;;;;;;13.32;8.35;;;;;;;;;;8162207;28;20618;-70
2022/04/25 00:35:13;;;;;;;10.68;8.63;;;;;;;;;;8162107;28;20023;-70
2022/04/25 00:39:14;;;;;;;9.02;8.10;;;;;;;;;;8162588;28;20134;-71
2022/04/25 00:43:14;;;;;;;10.70;8.65;;;;;;;;;;8160268;28;20019;-71
2022/04/25 00:47:14;;;;;;;8.25;7.43;;;;;;;;;;8160419;28;20047;-71
2022/04/25 00:51:15;;;;;;;8.88;7.97;;;;;;;;;;8160028;28;20042;-70
2022/04/25 00:55:15;;;;;;;8.70;7.55;;;;;;;;;;8163148;28;20959;-70
2022/04/25 00:59:17;;;;;;;7.00;6.40;;;;;;;;;;8162651;28;20497;-71
2022/04/25 01:03:17;;;;;;;8.38;7.53;;;;;;;;;;8176684;28;20313;-71
2022/04/25 01:07:17;;;;;;;10.95;8.48;;;;;;;;;;8162159;28;20022;-71
2022/04/25 01:11:17;;;;;;;9.90;8.90;;;;;;;;;;8161955;28;20085;-71
2022/04/25 01:15:18;;;;;;;8.45;7.25;;;;;;;;;;8162556;28;20299;-71
2022/04/25 01:19:18;;;;;;;9.93;8.60;;;;;;;;;;8162640;28;20035;-71
2022/04/25 01:27:38;;;;;;;8.70;7.80;;;;;;;;;;8161020;28;20050;-71
2022/04/25 01:31:39;;;;;;;10.45;8.70;;;;;;;;;;8160364;28;20032;-71
2022/04/25 01:35:40;;;;;;;9.27;8.30;;;;;;;;;;8162051;28;20042;-70
2022/04/25 01:39:59;;;;;;;9.18;7.75;;;;;;;;;;8161729;28;20024;-71
2022/04/25 01:43:59;;;;;;;9.43;8.20;;;;;;;;;;8160658;28;20026;-71
2022/04/25 01:47:59;;;;;;;10.52;8.68;;;;;;;;;;8158554;28;20106;-71
2022/04/25 01:52:01;;;;;;;10.00;7.65;;;;;;;;;;8159929;28;20042;-71
2022/04/25 01:56:01;;;;;;;7.53;6.50;;;;;;;;;;8160528;28;20027;-71
2022/04/25 02:00:01;;;;;;;7.63;6.88;;;;;;;;;;8160095;28;20015;-70
2022/04/25 02:04:01;;;;;;;9.27;8.33;;;;;;;;;;8158402;28;20115;-70
2022/04/25 02:08:02;;;;;;;10.48;8.10;;;;;;;;;;8161371;28;20301;-71
2022/04/25 02:12:03;;;;;;;8.73;7.20;;;;;;;;;;8164999;28;20031;-71
2022/04/25 02:16:04;;;;;;;9.07;7.22;;;;;;;;;;8167602;28;20154;-71
2022/04/25 02:20:05;;;;;;;10.20;7.57;;;;;;;;;;8164089;28;20956;-71
2022/04/25 02:24:05;;;;;;;9.75;7.75;;;;;;;;;;8164697;28;20042;-71
2022/04/25 02:28:05;;;;;;;9.70;8.43;;;;;;;;;;8163894;28;20123;-71
2022/04/25 02:32:06;;;;;;;9.02;7.97;;;;;;;;;;8181637;28;20089;-71
2022/04/25 02:36:06;;;;;;;9.32;7.15;;;;;;;;;;8166993;28;20037;-70
2022/04/25 02:40:07;;;;;;;9.00;7.85;;;;;;;;;;8166907;28;20035;-71
2022/04/25 02:44:07;;;;;;;8.57;7.47;;;;;;;;;;8169536;28;20035;-71
2022/04/25 02:48:07;;;;;;;8.23;7.40;;;;;;;;;;8164953;28;20153;-71
2022/04/25 02:52:07;;;;;;;9.85;7.72;;;;;;;;;;8164671;28;20133;-71
2022/04/25 02:56:08;;;;;;;7.65;6.72;;;;;;;;;;8162513;28;20035;-70
2022/04/25 03:00:08;;;;;;;8.73;6.88;;;;;;;;;;8162761;28;20477;-71
2022/04/25 03:04:09;;;;;;;10.07;7.85;;;;;;;;;;8164328;28;20035;-71
2022/04/25 03:08:13;;;;;;;8.18;6.72;;;;;;;;;;8164219;28;20210;-70
2022/04/25 03:12:14;;;;;;;8.90;7.65;;;;;;;;;;8163890;28;20089;-71
2022/04/25 03:16:14;;;;;;;8.80;7.60;;;;;;;;;;8165677;28;20047;-71
2022/04/25 03:20:14;;;;;;;8.80;7.50;;;;;;;;;;8163633;28;20115;-71
2022/04/25 03:24:14;;;;;;;7.80;6.80;;;;;;;;;;8162531;28;20042;-70
2022/04/25 03:28:15;;;;;;;11.82;8.00;;;;;;;;;;8164255;28;20077;-71
2022/04/25 03:32:15;;;;;;;8.88;6.53;;;;;;;;;;8161366;28;20811;-70
2022/04/25 03:36:16;;;;;;;7.50;6.72;;;;;;;;;;8163325;28;20374;-71
2022/04/25 03:40:16;;;;;;;9.23;7.60;;;;;;;;;;8163252;28;20492;-71
2022/04/25 03:44:16;;;;;;;10.32;7.70;;;;;;;;;;8162873;28;20061;-71
2022/04/25 03:48:16;;;;;;;13.02;10.65;;;;;;;;;;8162826;28;20039;-71
2022/04/25 03:52:16;;;;;;;13.68;9.65;;;;;;;;;;8161382;28;20038;-71
2022/04/25 04:00:37;;;;;;;13.73;9.65;;;;;;;;;;8162055;28;20382;-71
2022/04/25 04:04:37;;;;;;;11.40;8.88;;;;;;;;;;8166561;28;20268;-70
2022/04/25 04:08:37;;;;;;;10.27;8.90;;;;;;;;;;8165424;28;20059;-70
2022/04/25 04:12:38;;;;;;;11.43;9.10;;;;;;;;;;8163457;28;20038;-71
2022/04/25 04:16:38;;;;;;;12.85;9.32;;;;;;;;;;8163687;28;20563;-71
2022/04/25 04:20:38;;;;;;;10.40;8.57;;;;;;;;;;8163255;28;20024;-70
2022/04/25 04:24:38;;;;;;;14.50;9.50;;;;;;;;;;8162958;28;20085;-71
2022/04/25 04:28:39;;;;;;;16.17;11.45;;;;;;;;;;8160796;28;20145;-71
2022/04/25 04:32:40;;;;;;;12.25;9.38;;;;;;;;;;8160383;28;20043;-71
2022/04/25 04:36:40;;;;;;;11.80;9.95;;;;;;;;;;8162424;28;20078;-71
2022/04/25 04:40:41;;;;;;;10.57;8.82;;;;;;;;;;8161085;28;20035;-71
2022/04/25 04:44:42;;;;;;;9.63;8.50;;;;;;;;;;8163029;28;20744;-71
2022/04/25 04:48:42;;;;;;;12.27;10.38;;;;;;;;;;8157900;28;20294;-71
2022/04/25 04:52:43;;;;;;;13.63;10.20;;;;;;;;;;8173192;28;20023;-71
2022/04/25 04:56:44;;;;;;;11.82;9.77;;;;;;;;;;8160091;28;20778;-71
2022/04/25 05:00:48;;;;;;;12.73;9.93;;;;;;;;;;8156788;28;20031;-71
2022/04/25 05:04:49;;;;;;;17.02;12.75;;;;;;;;;;8159053;28;20035;-71
2022/04/25 05:08:49;;;;;;;19.50;12.90;;;;;;;;;;8175548;28;20035;-71
2022/04/25 05:12:50;;;;;;;16.90;13.55;;;;;;;;;;8161609;28;20073;-71
2022/04/25 05:16:50;;;;;;;16.30;11.75;;;;;;;;;;8159009;28;20105;-71
2022/04/25 05:20:51;;;;;;;11.88;10.05;;;;;;;;;;8158906;28;20032;-71
2022/04/25 05:24:51;;;;;;;18.73;12.82;;;;;;;;;;8159667;28;20035;-71
2022/04/25 05:28:51;;;;;;;12.52;10.95;;;;;;;;;;8160739;28;20035;-72
2022/04/25 05:32:53;;;;;;;14.95;10.77;;;;;;;;;;8157937;28;20047;-71
2022/04/25 05:36:54;;;;;;;12.90;11.00;;;;;;;;;;8161888;28;20031;-71
2022/04/25 05:40:54;;;;;;;12.88;11.57;;;;;;;;;;8156548;28;20031;-72
2022/04/25 05:44:54;;;;;;;14.55;11.98;;;;;;;;;;8163615;28;21074;-71
2022/04/25 05:53:13;;;;;;;16.83;14.15;;;;;;;;;;8168190;28;20108;-71
2022/04/25 05:57:13;;;;;;;17.25;13.93;;;;;;;;;;8168123;28;20141;-71
2022/04/25 06:01:14;;;;;;;17.23;14.25;;;;;;;;;;8169488;28;20031;-71
2022/04/25 06:05:15;;;;;;;17.85;14.05;;;;;;;;;;8168464;28;20031;-71
2022/04/25 06:09:17;;;;;;;19.27;14.98;;;;;;;;;;8168309;28;20024;-71
2022/04/25 06:13:18;;;;;;;16.85;12.75;;;;;;;;;;8174670;28;20141;-71
2022/04/25 06:17:19;;;;;;;16.77;13.82;;;;;;;;;;8168074;28;20059;-72
2022/04/25 06:21:19;;;;;;;17.85;14.75;;;;;;;;;;8167898;28;20030;-71
2022/04/25 06:25:19;;;;;;;17.48;14.30;;;;;;;;;;8167133;28;20027;-71
2022/04/25 06:29:19;;;;;;;17.20;14.47;;;;;;;;;;8165973;28;20034;-71
2022/04/25 06:33:20;;;;;;;18.42;15.15;;;;;;;;;;8165865;28;20345;-72
2022/04/25 06:37:20;;;;;;;22.25;16.10;;;;;;;;;;8166687;28;20831;-72
2022/04/25 06:41:23;;;;;;;18.17;15.35;;;;;;;;;;8167436;28;20042;-72
2022/04/25 06:45:23;;;;;;;16.90;14.80;;;;;;;;;;8166297;28;20560;-72
2022/04/25 06:49:24;;;;;;;16.05;14.02;;;;;;;;;;8165707;28;20031;-71
2022/04/25 06:53:24;;;;;;;17.70;14.48;;;;;;;;;;8166791;28;20023;-72
2022/04/25 06:57:24;;;;;;;15.02;13.25;;;;;;;;;;8166039;28;20034;-72
2022/04/25 07:01:24;;;;;;;16.95;13.48;;;;;;;;;;8171188;28;20134;-71
2022/04/25 07:05:25;;;;;;;16.92;13.27;;;;;;;;;;8164630;28;20065;-71
2022/04/25 07:09:25;;;;;;;16.87;15.10;;;;;;;;;;8167182;28;20019;-72
2022/04/25 07:13:25;;;;;;;19.33;14.65;;;;;;;;;;8170378;28;20619;-71
2022/04/25 07:17:26;;;;;;;15.10;12.65;;;;;;;;;;8166947;28;20043;-71
2022/04/25 07:30:04;;;;;;;16.67;12.93;;;;;;;;;;8166395;28;20038;-72
2022/04/25 07:34:04;;;;;;;12.88;11.43;;;;;;;;;;8164519;28;20028;-72
2022/04/25 07:38:05;;;;;;;12.90;10.93;;;;;;;;;;8163727;28;20496;-72
2022/04/25 07:42:05;;;;;;;11.90;10.63;;;;;;;;;;8163322;28;20030;-72
2022/04/25 07:46:06;;;;;;;10.93;9.57;;;;;;;;;;8165567;28;20036;-72
2022/04/25 07:50:06;;;;;;;13.98;11.18;;;;;;;;;;8167121;28;20062;-72
2022/04/25 07:54:08;;;;;;;11.18;10.07;;;;;;;;;;8165291;28;20085;-72
2022/04/25 07:58:08;;;;;;;12.85;11.52;;;;;;;;;;8164986;28;20034;-72
2022/04/25 08:02:09;;;;;;;11.95;10.75;;;;;;;;;;8163042;28;20047;-72
2022/04/25 08:06:11;;;;;;;15.30;11.50;;;;;;;;;;8160268;28;20055;-72
2022/04/25 08:10:11;;;;;;;12.30;10.75;;;;;;;;;;8163604;28;20015;-72
2022/04/25 08:18:30;;;;;;;16.45;10.52;;;;;;;;;;8159619;28;20106;-71
2022/04/25 08:22:30;;;;;;;9.95;8.88;;;;;;;;;;8164092;28;20019;-72
2022/04/25 08:26:31;;;;;;;10.27;9.20;;;;;;;;;;8164131;28;20061;-72
2022/04/25 08:30:31;;;;;;;10.43;8.97;;;;;;;;;;8162048;28;20043;-72
2022/04/25 08:34:31;;;;;;;10.07;8.68;;;;;;;;;;8165549;28;20323;-72
2022/04/25 08:38:31;;;;;;;11.45;7.97;;;;;;;;;;8164194;28;20101;-71
2022/04/25 08:42:31;;;;;;;10.57;9.55;;;;;;;;;;8162620;28;20019;-71
2022/04/25 08:46:33;;;;;;;9.75;8.75;;;;;;;;;;8163366;28;20115;-71
2022/04/25 08:50:34;;;;;;;11.73;9.98;;;;;;;;;;8176029;28;20035;-72
2022/04/25 08:54:35;;;;;;;11.43;9.15;;;;;;;;;;8162735;28;20033;-72
2022/04/25 08:58:40;;;;;;;9.88;7.82;;;;;;;;;;8160033;28;20074;-72
2022/04/25 09:02:41;;;;;;;9.57;7.53;;;;;;;;;;8159334;28;20035;-72
2022/04/25 09:06:42;;;;;;;10.23;9.23;;;;;;;;;;8162639;28;20745;-72
2022/04/25 09:10:44;;;;;;;10.57;9.48;;;;;;;;;;8160933;28;20035;-72
2022/04/25 09:14:45;;;;;;;9.45;8.52;;;;;;;;;;8160113;28;20096;-72
2022/04/25 09:18:45;;;;;;;9.57;8.48;;;;;;;;;;8163360;28;20135;-72
2022/04/25 09:22:45;;;;;;;7.80;7.10;;;;;;;;;;8162007;28;20027;-72
2022/04/25 09:26:45;;;;;;;8.07;7.28;;;;;;;;;;8163434;28;20027;-72
2022/04/25 09:30:56;;;;;;;8.13;7.33;;;;;;;;;;8160882;28;20039;-72
2022/04/25 09:34:59;;;;;;;7.80;6.90;;;;;;;;;;8163238;28;20293;-71
2022/04/25 09:39:00;;;;;;;11.05;8.63;;;;;;;;;;8160603;28;20090;-72
2022/04/25 09:43:04;;;;;;;9.57;8.27;;;;;;;;;;8161398;28;20034;-71
2022/04/25 09:47:04;;;;;;;9.13;7.55;;;;;;;;;;8162122;28;20139;-71
2022/04/25 09:51:08;;;;;;;7.45;6.75;;;;;;;;;;8160968;28;20783;-72
2022/04/25 09:55:12;;;;;;;9.20;8.30;;;;;;;;;;8161896;28;20536;-72
2022/04/25 09:59:12;;;;;;;10.05;7.70;;;;;;;;;;8162724;28;20058;-72
2022/04/25 10:03:14;;;;;;;8.30;7.50;;;;;;;;;;8158970;28;20702;-72
2022/04/25 10:07:15;;;;;;;8.57;7.78;;;;;;;;;;8160690;28;20118;-72
2022/04/25 10:11:17;;;;;;;9.77;7.80;;;;;;;;;;8158656;28;20063;-72
2022/04/25 10:15:18;;;;;;;10.20;9.20;;;;;;;;;;8160966;28;20475;-71
2022/04/25 10:19:18;;;;;;;9.00;8.07;;;;;;;;;;8160983;28;20051;-71
2022/04/25 10:23:18;;;;;;;10.55;7.80;;;;;;;;;;8160354;28;20034;-71
2022/04/25 10:27:24;;;;;;;9.33;8.50;;;;;;;;;;8160203;28;20058;-71
2022/04/25 10:31:32;;;;;;;8.95;8.13;;;;;;;;;;8162214;28;20090;-71
2022/04/25 10:35:34;;;;;;;9.52;8.25;;;;;;;;;;8164692;28;20027;-72
2022/04/25 10:39:45;;;;;;;7.95;7.10;;;;;;;;;;8167229;28;20065;-72
2022/04/25 10:48:08;;;;;;;8.65;7.82;;;;;;;;;;8165002;28;20061;-71
2022/04/25 10:57:00;;;;;;;8.35;7.53;;;;;;;;;;8163666;28;20144;-71
2022/04/25 11:01:00;;;;;;;9.82;6.97;;;;;;;;;;8161067;28;20996;-71
2022/04/25 11:05:10;;;;;;;9.93;7.43;;;;;;;;;;8162896;28;20027;-71
2022/04/25 11:09:10;;;;;;;8.82;7.88;;;;;;;;;;8164069;28;20429;-71
2022/04/25 11:13:12;;;;;;;8.82;7.93;;;;;;;;;;8164177;28;20063;-71
2022/04/25 11:17:13;;;;;;;9.18;7.55;;;;;;;;;;8146270;28;20146;-72
2022/04/25 11:21:16;;;;;;;7.82;6.90;;;;;;;;;;8160847;28;20818;-72
2022/04/25 11:25:22;;;;;;;8.27;7.47;;;;;;;;;;8172713;28;20019;-72
2022/04/25 11:29:23;;;;;;;9.88;7.22;;;;;;;;;;8158265;28;20149;-72
2022/04/25 11:33:23;;;;;;;7.60;6.90;;;;;;;;;;8160282;28;20138;-72
2022/04/25 11:37:23;;;;;;;10.32;7.35;;;;;;;;;;8164057;28;20259;-72
2022/04/25 11:41:23;;;;;;;10.40;7.28;;;;;;;;;;8158412;28;20023;-72
2022/04/25 11:45:24;;;;;;;8.20;7.40;;;;;;;;;;8160202;28;21702;-72
2022/04/25 11:49:28;;;;;;;8.67;7.77;;;;;;;;;;8156619;28;20550;-71
2022/04/25 11:53:34;;;;;;;9.98;7.47;;;;;;;;;;8162747;28;102125;-72
2022/04/25 11:57:38;;;;;;;7.65;6.88;;;;;;;;;;8156336;28;20402;-71
2022/04/25 12:01:39;;;;;;;6.35;5.80;;;;;;;;;;8158710;28;20063;-71
2022/04/25 12:05:40;;;;;;;5.43;4.93;;;;;;;;;;8157341;28;20117;-71
2022/04/25 12:18:21;;;;;;;3.20;2.90;;;;;;;;;;8155958;28;20062;-72
2022/04/25 12:22:24;;;;;;;4.80;4.25;;;;;;;;;;8172852;28;20063;-72
2022/04/25 12:26:29;;;;;;;3.00;2.80;;;;;;;;;;8157367;28;20059;-72
2022/04/25 12:30:32;;;;;;;4.10;3.40;;;;;;;;;;8156658;28;20059;-72
2022/04/25 12:34:33;;;;;;;3.30;3.00;;;;;;;;;;8157565;28;20015;-72
2022/04/25 12:38:41;;;;;;;3.03;2.72;;;;;;;;;;8158423;28;20038;-72
2022/04/25 12:42:45;;;;;;;2.55;2.35;;;;;;;;;;8156638;28;20809;-72
2022/04/25 12:46:46;;;;;;;3.65;2.75;;;;;;;;;;8158185;28;20508;-72
2022/04/25 12:50:46;;;;;;;3.08;2.83;;;;;;;;;;8155200;28;21084;-71
2022/04/25 12:54:48;;;;;;;2.83;2.63;;;;;;;;;;8156831;28;20102;-72
2022/04/25 12:58:48;;;;;;;2.75;2.55;;;;;;;;;;8158879;28;20898;-72
2022/04/25 13:02:49;;;;;;;3.40;3.10;;;;;;;;;;8155454;28;20043;-72
2022/04/25 13:06:50;;;;;;;3.72;2.80;;;;;;;;;;8157793;28;20034;-71
2022/04/25 13:10:50;;;;;;;2.70;2.17;;;;;;;;;;8157047;28;20047;-71
2022/04/25 13:14:50;;;;;;;2.53;2.13;;;;;;;;;;8159498;28;20028;-71
2022/04/25 13:18:50;;;;;;;2.15;2.05;;;;;;;;;;8158912;28;20600;-72
2022/04/25 13:22:50;;;;;;;3.73;3.27;;;;;;;;;;8159568;28;20078;-72
2022/04/25 13:26:51;;;;;;;2.63;2.30;;;;;;;;;;8160305;28;20020;-72
2022/04/25 13:30:53;;;;;;;2.75;2.55;;;;;;;;;;8165528;28;20875;-72
2022/04/25 13:34:54;;;;;;;2.83;2.63;;;;;;;;;;8159291;28;20035;-72
2022/04/25 13:38:54;;;;;;;2.25;2.15;;;;;;;;;;8158558;28;20089;-72
2022/04/25 13:42:55;;;;;;;2.47;2.33;;;;;;;;;;8156756;28;20050;-71
2022/04/25 13:46:55;;;;;;;3.47;2.10;;;;;;;;;;8157861;28;20035;-72
2022/04/25 13:50:56;;;;;;;3.40;2.15;;;;;;;;;;8162616;28;20065;-72
2022/04/25 13:54:56;;;;;;;2.80;2.10;;;;;;;;;;8158513;28;20102;-71
2022/04/25 13:58:56;;;;;;;2.13;1.90;;;;;;;;;;8155720;28;20019;-72
2022/04/25 14:03:05;;;;;;;1.90;1.80;;;;;;;;;;8155503;28;20043;-72
2022/04/25 14:07:08;;;;;;;2.05;1.92;;;;;;;;;;8152889;28;20277;-72
2022/04/25 14:11:08;;;;;;;2.88;2.60;;;;;;;;;;8165901;28;20022;-71
2022/04/25 14:15:08;;;;;;;2.72;2.53;;;;;;;;;;8165438;28;20365;-71
2022/04/25 14:19:09;;;;;;;3.17;2.88;;;;;;;;;;8163731;28;20110;-72
2022/04/25 14:23:10;;;;;;;3.00;2.70;;;;;;;;;;8165838;28;20134;-71
2022/04/25 14:27:10;;;;;;;2.83;2.63;;;;;;;;;;8166586;28;20019;-72
2022/04/25 14:31:11;;;;;;;3.37;3.03;;;;;;;;;;8165443;28;20405;-72
2022/04/25 14:35:11;;;;;;;3.10;2.80;;;;;;;;;;8163732;28;20290;-72
2022/04/25 14:39:11;;;;;;;3.03;2.72;;;;;;;;;;8163445;28;20026;-72
2022/04/25 14:43:11;;;;;;;3.42;2.90;;;;;;;;;;8160663;28;20662;-71
2022/04/25 14:47:12;;;;;;;2.57;2.37;;;;;;;;;;8175906;28;20031;-72
2022/04/25 14:55:31;;;;;;;2.50;2.30;;;;;;;;;;8163113;28;20170;-71
2022/04/25 14:59:31;;;;;;;4.57;2.33;;;;;;;;;;8161801;28;20051;-72
2022/04/25 15:03:32;;;;;;;2.55;2.33;;;;;;;;;;8159091;28;20098;-71
2022/04/25 15:07:32;;;;;;;2.70;2.50;;;;;;;;;;8175076;28;20027;-71
2022/04/25 15:11:33;;;;;;;2.63;2.43;;;;;;;;;;8157347;28;20030;-72
2022/04/25 15:15:38;;;;;;;2.90;2.60;;;;;;;;;;8159992;28;20291;-72
2022/04/25 15:19:38;;;;;;;2.40;2.20;;;;;;;;;;8160115;28;21063;-71
2022/04/25 15:23:39;;;;;;;1.95;1.85;;;;;;;;;;8160611;28;20019;-71
2022/04/25 15:27:39;;;;;;;3.85;2.33;;;;;;;;;;8160700;28;20793;-72
2022/04/25 15:31:39;;;;;;;2.70;2.03;;;;;;;;;;8159872;28;20035;-72
2022/04/25 15:35:39;;;;;;;2.45;2.25;;;;;;;;;;8161530;28;20036;-71
2022/04/25 15:39:41;;;;;;;2.10;1.90;;;;;;;;;;8163506;28;20062;-72
2022/04/25 15:43:41;;;;;;;4.22;2.70;;;;;;;;;;8160021;28;20062;-72
2022/04/25 15:47:42;;;;;;;2.65;2.45;;;;;;;;;;8162481;28;20034;-72
2022/04/25 15:51:42;;;;;;;2.97;2.63;;;;;;;;;;8160744;28;20038;-71
2022/04/25 16:00:03;;;;;;;2.20;2.10;;;;;;;;;;8159439;28;20202;-72
2022/04/25 16:04:04;;;;;;;2.25;2.05;;;;;;;;;;8162994;28;20673;-72
2022/04/25 16:08:06;;;;;;;2.65;2.45;;;;;;;;;;8162553;28;20130;-72
2022/04/25 16:12:06;;;;;;;2.50;2.30;;;;;;;;;;8164545;28;20026;-72
2022/04/25 16:16:07;;;;;;;4.88;2.55;;;;;;;;;;8161052;28;20043;-72
2022/04/25 16:20:07;;;;;;;2.70;2.50;;;;;;;;;;8176332;28;20609;-72
2022/04/25 16:24:07;;;;;;;3.13;2.78;;;;;;;;;;8164338;28;20097;-72
2022/04/25 16:28:07;;;;;;;3.05;2.72;;;;;;;;;;8162606;28;20023;-72
2022/04/25 16:32:07;;;;;;;8.10;4.13;;;;;;;;;;8162360;28;20149;-72
2022/04/25 16:36:08;;;;;;;3.40;3.10;;;;;;;;;;8163441;28;20058;-72
2022/04/25 16:40:08;;;;;;;2.80;2.60;;;;;;;;;;8169005;28;20070;-72
2022/04/25 16:44:09;;;;;;;3.03;2.63;;;;;;;;;;8177452;28;20035;-71
2022/04/25 16:48:09;;;;;;;3.30;3.00;;;;;;;;;;8161973;28;20044;-71
2022/04/25 16:52:09;;;;;;;2.80;2.60;;;;;;;;;;8162372;28;20050;-71
2022/04/25 16:56:10;;;;;;;3.70;3.40;;;;;;;;;;8162982;28;20031;-72
2022/04/25 17:00:10;;;;;;;3.10;2.80;;;;;;;;;;8160972;28;20035;-72
2022/04/25 17:04:11;;;;;;;2.90;2.70;;;;;;;;;;8162235;28;20098;-72
2022/04/25 17:08:11;;;;;;;4.32;3.72;;;;;;;;;;8166877;28;20031;-72
2022/04/25 17:12:11;;;;;;;3.83;3.42;;;;;;;;;;8161616;28;20019;-72
2022/04/25 17:16:11;;;;;;;6.10;3.10;;;;;;;;;;8164444;28;20049;-72
2022/04/25 17:20:12;;;;;;;2.40;2.30;;;;;;;;;;8161448;28;21268;-72
2022/04/25 17:24:12;;;;;;;2.60;2.40;;;;;;;;;;8165515;28;20797;-72
2022/04/25 17:28:13;;;;;;;2.33;2.22;;;;;;;;;;8163238;28;20031;-72
2022/04/25 17:36:43;;;;;;;2.95;2.75;;;;;;;;;;8161332;28;20125;-71
